Time;durP1;ratioP1;P1;durP2;ratioP2;P2;SDS_P1;SDS_P2;PMS_P1;PMS_P2;Temp;Humidity;BMP_temperature;BMP_pressure;BME280_temperature;BME280_humidity;BME280_pressure;Samples;Min_cycle;Max_cycle;Signal;HPM_P1;HPM_P2
2022/11/08 06:18:04;;;;;;;;;6.00;6.00;;;;;10.13;71.97;100243.09;5115815;27;45504;-66
2022/11/08 06:20:30;;;;;;;;;6.50;5.25;;;;;10.23;71.64;100245.66;5114673;27;45475;-66
2022/11/08 06:22:55;;;;;;;;;9.25;5.25;;;;;10.41;71.72;100253.47;5115059;27;45363;-66
2022/11/08 06:25:21;;;;;;;;;5.75;4.25;;;;;10.58;70.69;100249.03;5115337;27;45594;-67
2022/11/08 06:27:46;;;;;;;;;4.50;4.50;;;;;10.71;69.60;100247.19;5126645;27;48004;-67
2022/11/08 06:30:13;;;;;;;;;7.75;6.25;;;;;10.82;69.24;100245.38;5110636;27;45877;-66
2022/11/08 06:32:38;;;;;;;;;3.75;3.75;;;;;10.92;69.24;100240.06;5107963;27;45469;-66
2022/11/08 06:35:04;;;;;;;;;4.25;4.25;;;;;10.96;69.12;100239.16;5110004;27;45786;-66
2022/11/08 06:37:30;;;;;;;;;6.00;6.00;;;;;11.04;68.87;100237.34;5109839;27;46475;-66
2022/11/08 06:39:55;;;;;;;;;4.67;4.67;;;;;11.08;68.06;100235.56;5109441;27;45506;-66
2022/11/08 06:42:21;;;;;;;;;6.75;4.00;;;;;11.15;67.64;100248.63;5104401;27;45503;-68
2022/11/08 06:44:47;;;;;;;;;5.50;5.50;;;;;11.22;67.46;100266.03;5108936;27;45393;-66
2022/11/08 06:47:13;;;;;;;;;4.67;4.67;;;;;11.22;67.29;100260.81;5110001;27;45476;-67
2022/11/08 06:50:00;;;;;;;;;6.25;4.50;;;;;11.29;67.88;100276.47;5127678;27;45631;-65
2022/11/08 06:52:26;;;;;;;;;8.00;4.00;;;;;11.33;67.54;100294.78;5112264;27;45645;-65
2022/11/08 06:54:51;;;;;;;;;7.50;5.25;;;;;11.36;67.37;100286.88;5113762;27;45581;-66
2022/11/08 06:57:17;;;;;;;;;6.75;5.75;;;;;11.35;66.74;100271.19;5112685;27;45581;-66
2022/11/08 06:59:43;;;;;;;;;4.00;4.00;;;;;11.28;67.01;100267.72;5109384;27;45690;-66
2022/11/08 07:02:10;;;;;;;;;7.00;5.25;;;;;11.40;66.75;100267.63;5109895;27;45707;-66
2022/11/08 07:04:36;;;;;;;;;6.00;4.67;;;;;11.41;66.98;100274.63;5110334;27;45642;-65
2022/11/08 07:07:02;;;;;;;;;3.00;3.00;;;;;11.44;66.55;100266.72;5109094;27;46123;-65
2022/11/08 07:09:30;;;;;;;;;5.33;5.33;;;;;11.46;66.58;100277.22;5110592;27;45572;-66
2022/11/08 07:11:56;;;;;;;;;4.67;4.33;;;;;11.50;66.50;100275.41;5106569;27;45503;-67
2022/11/08 07:14:22;;;;;;;;;5.00;5.00;;;;;11.53;66.86;100278.88;5115058;27;45456;-66
2022/11/08 07:16:47;;;;;;;;;5.67;5.67;;;;;11.55;66.09;100268.38;5113659;27;45443;-66
2022/11/08 07:19:13;;;;;;;;;5.67;5.67;;;;;11.54;65.60;100264.88;5114385;27;45341;-66
2022/11/08 07:21:39;;;;;;;;;6.00;4.67;;;;;11.59;65.65;100272.72;5110542;27;45678;-66
2022/11/08 07:24:05;;;;;;;;;10.00;5.75;;;;;11.66;65.43;100303.25;5108966;27;45632;-66
2022/11/08 07:26:33;;;;;;;;;5.00;4.33;;;;;11.70;66.05;100296.19;5122342;27;46795;-66
2022/11/08 07:28:59;;;;;;;;;6.00;4.67;;;;;11.76;65.63;100293.53;5093696;27;45515;-66
2022/11/08 07:31:25;;;;;;;;;8.50;6.25;;;;;11.78;65.28;100276.88;5094241;27;45829;-66
2022/11/08 07:33:50;;;;;;;;;8.00;5.67;;;;;11.79;65.10;100269.88;5096238;27;45372;-66
2022/11/08 07:36:16;;;;;;;;;6.67;5.67;;;;;11.90;65.18;100268.03;5095454;27;46279;-66
2022/11/08 07:38:43;;;;;;;;;6.33;4.33;;;;;11.91;65.16;100285.50;5093855;27;45497;-65
2022/11/08 07:41:09;;;;;;;;;7.67;5.67;;;;;11.96;65.20;100288.09;5095766;27;45570;-66
2022/11/08 07:43:37;;;;;;;;;7.00;4.33;;;;;11.96;65.14;100280.22;5095770;27;45660;-67
2022/11/08 07:46:03;;;;;;;;;5.00;5.00;;;;;12.05;64.68;100298.50;5095216;27;46171;-65
2022/11/08 07:48:30;;;;;;;;;4.00;4.00;;;;;12.18;64.76;100294.00;5097706;27;45293;-65
2022/11/08 07:50:56;;;;;;;;;4.67;4.67;;;;;12.26;64.41;100284.25;5095851;27;45406;-66
2022/11/08 07:53:23;;;;;;;;;5.00;4.00;;;;;12.33;64.19;100301.66;5111683;27;45678;-66
2022/11/08 07:55:49;;;;;;;;;6.33;4.67;;;;;12.27;64.07;100288.63;5098459;27;45700;-66
2022/11/08 07:58:16;;;;;;;;;5.00;5.00;;;;;12.22;64.27;100290.41;5098132;27;45259;-66
2022/11/08 08:00:43;;;;;;;;;4.33;4.33;;;;;12.20;63.87;100287.84;5095403;27;45408;-66
2022/11/08 08:03:12;;;;;;;;;9.67;4.67;;;;;12.15;64.54;100281.78;5098290;27;45814;-65
2022/11/08 08:05:41;;;;;;;;;5.67;4.33;;;;;12.15;64.31;100294.91;5095680;27;46139;-65
2022/11/08 08:08:08;;;;;;;;;8.67;4.33;;;;;12.12;65.10;100302.78;5094019;27;45428;-65
2022/11/08 08:10:34;;;;;;;;;6.00;5.00;;;;;12.02;65.01;100272.28;5093559;27;45734;-65
2022/11/08 08:13:00;;;;;;;;;6.00;4.67;;;;;12.14;64.86;100292.28;5095509;27;45611;-65
2022/11/08 08:15:25;;;;;;;;;7.33;5.00;;;;;12.15;65.37;100283.50;5094980;27;46207;-65
2022/11/08 08:17:52;;;;;;;;;5.00;4.67;;;;;12.13;65.19;100269.56;5094589;27;45432;-65
2022/11/08 08:20:18;;;;;;;;;6.67;4.00;;;;;12.22;65.43;100272.94;5094840;27;45646;-65
2022/11/08 08:22:48;;;;;;;;;6.00;5.00;;;;;12.22;65.53;100272.94;5098499;27;45400;-67
2022/11/08 08:25:15;;;;;;;;;5.00;5.00;;;;;12.25;65.48;100287.78;5094751;27;46309;-66
2022/11/08 08:27:49;;;;;;;;;6.67;5.33;;;;;12.28;65.10;100264.09;5094849;27;45699;-66
2022/11/08 08:30:16;;;;;;;;;5.67;4.00;;;;;12.33;65.36;100264.91;5095075;27;45721;-66
2022/11/08 08:32:42;;;;;;;;;4.00;4.00;;;;;12.34;65.37;100257.88;5092674;27;45619;-66
2022/11/08 08:35:08;;;;;;;;;7.33;5.00;;;;;12.40;65.54;100247.31;5095339;27;45535;-66
2022/11/08 08:37:34;;;;;;;;;5.00;4.33;;;;;12.49;65.10;100247.19;5096410;27;45485;-66
2022/11/08 08:40:00;;;;;;;;;6.67;4.67;;;;;12.56;65.38;100240.97;5093324;27;45672;-65
2022/11/08 08:42:25;;;;;;;;;5.00;4.00;;;;;12.49;65.27;100227.03;5094223;27;45526;-66
2022/11/08 08:44:51;;;;;;;;;5.00;5.00;;;;;12.91;64.60;100260.63;5094164;27;46430;-65
2022/11/08 08:47:17;;;;;;;;;3.00;3.00;;;;;13.36;63.46;100272.19;5093619;27;45601;-64
2022/11/08 08:49:42;;;;;;;;;4.33;4.33;;;;;13.39;63.32;100260.75;5093652;27;45619;-66
2022/11/08 08:52:08;;;;;;;;;5.00;3.67;;;;;13.21;63.17;100248.72;5094038;27;45548;-65
2022/11/08 08:54:34;;;;;;;;;5.00;4.00;;;;;13.26;63.79;100278.44;5094516;27;46179;-65
2022/11/08 08:56:59;;;;;;;;;7.00;4.00;;;;;13.31;63.87;100283.66;5092674;27;45518;-65
2022/11/08 08:59:27;;;;;;;;;4.00;4.00;;;;;13.31;63.78;100270.50;5110316;27;45571;-65
2022/11/08 09:01:52;;;;;;;;;3.00;3.00;;;;;13.28;64.31;100268.81;5094259;27;45429;-66
2022/11/08 09:04:18;;;;;;;;;5.67;4.00;;;;;13.34;64.08;100276.59;5092120;27;46881;-65
2022/11/08 09:06:44;;;;;;;;;7.33;3.00;;;;;13.35;64.22;100273.06;5093886;27;45475;-66
2022/11/08 09:09:09;;;;;;;;;4.00;3.33;;;;;13.60;63.93;100293.72;5094489;27;45771;-65
2022/11/08 09:11:35;;;;;;;;;5.33;4.00;;;;;13.70;63.68;100284.75;5096102;27;45454;-66
2022/11/08 09:14:01;;;;;;;;;5.33;3.33;;;;;13.81;63.04;100283.69;5109836;27;47490;-66
2022/11/08 09:16:26;;;;;;;;;4.00;4.00;;;;;13.87;62.77;100276.53;5093001;27;45549;-66
2022/11/08 09:18:52;;;;;;;;;5.67;4.00;;;;;14.00;63.01;100271.91;5097512;27;45452;-66
2022/11/08 09:21:18;;;;;;;;;4.67;4.67;;;;;15.33;60.82;100264.59;5092935;27;45593;-66
2022/11/08 09:23:43;;;;;;;;;3.33;3.33;;;;;15.40;59.36;100245.94;5093843;27;45969;-66
2022/11/08 09:26:09;;;;;;;;;2.67;2.67;;;;;15.64;58.58;100276.13;5093755;27;45464;-67
2022/11/08 09:28:36;;;;;;;;;4.33;4.00;;;;;16.98;54.94;100271.44;5092496;27;45575;-66
2022/11/08 09:31:04;;;;;;;;;3.00;3.00;;;;;16.34;55.86;100280.38;5097096;27;45571;-65
2022/11/08 09:33:30;;;;;;;;;6.33;4.00;;;;;16.36;56.77;100283.00;5094297;27;45664;-65
2022/11/08 09:35:57;;;;;;;;;4.00;4.00;;;;;17.91;53.07;100294.78;5094529;27;45467;-66
2022/11/08 09:38:23;;;;;;;;;3.33;2.00;;;;;18.05;52.39;100290.81;5095091;27;45528;-65
2022/11/08 09:41:10;;;;;;;;;4.33;2.33;;;;;18.60;51.69;100284.34;5092832;27;46423;-67
2022/11/08 09:43:48;;;;;;;;;5.00;3.00;;;;;21.29;45.93;100261.09;5095198;27;48067;-66
2022/11/08 09:46:38;;;;;;;;;3.33;3.33;;;;;21.27;45.52;100260.28;5091987;27;45433;-66
2022/11/08 09:49:10;;;;;;;;;5.33;3.00;;;;;19.87;47.28;100265.00;5094455;27;45426;-65
2022/11/08 09:51:36;;;;;;;;;3.00;2.00;;;;;18.70;49.74;100262.72;5087648;27;45471;-66
2022/11/08 09:54:05;;;;;;;;;4.67;3.33;;;;;17.83;51.98;100269.53;5093026;27;46215;-65
2022/11/08 09:56:36;;;;;;;;;3.33;3.33;;;;;17.23;53.77;100264.44;5093989;27;45453;-66
2022/11/08 09:59:24;;;;;;;;;3.00;3.00;;;;;16.91;55.00;100266.34;5094239;27;45457;-66
2022/11/08 10:01:49;;;;;;;;;5.00;2.33;;;;;16.78;55.81;100259.69;5092475;27;45343;-66
2022/11/08 10:04:20;;;;;;;;;2.00;2.00;;;;;17.29;54.96;100263.38;5096413;27;45841;-65
2022/11/08 10:06:57;;;;;;;;;6.33;3.00;;;;;17.79;53.50;100272.22;5096546;27;45537;-67
2022/11/08 10:09:29;;;;;;;;;2.67;2.67;;;;;18.42;52.14;100269.97;5092906;27;45491;-66
2022/11/08 10:12:19;;;;;;;;;5.33;3.33;;;;;18.88;50.69;100267.34;5091315;27;45510;-66
2022/11/08 10:15:07;;;;;;;;;3.67;2.00;;;;;18.10;52.49;100267.66;5092764;27;45421;-66
2022/11/08 10:17:56;;;;;;;;;4.00;4.00;;;;;17.78;53.67;100257.25;5095646;27;45501;-65
2022/11/08 10:20:56;;;;;;;;;3.00;3.00;;;;;18.04;53.50;100275.84;5091164;27;45418;-66
2022/11/08 10:23:35;;;;;;;;;5.00;3.00;;;;;19.58;51.22;100268.03;5095694;27;45547;-66
2022/11/08 10:26:13;;;;;;;;;3.33;3.33;;;;;20.09;48.68;100272.88;5095103;27;45404;-66
2022/11/08 10:29:02;;;;;;;;;3.00;3.00;;;;;19.01;50.69;100257.97;5108346;27;45544;-66
2022/11/08 10:31:32;;;;;;;;;7.67;5.00;;;;;18.62;52.28;100271.00;5092170;27;45508;-66
2022/11/08 10:34:00;;;;;;;;;3.33;3.33;;;;;18.68;52.11;100283.16;5092026;27;45512;-66
2022/11/08 10:36:39;;;;;;;;;5.00;3.67;;;;;18.51;53.16;100273.19;5094563;27;46629;-67
2022/11/08 10:39:07;;;;;;;;;4.00;4.00;;;;;19.52;50.98;100263.84;5097182;27;45470;-66
2022/11/08 10:42:00;;;;;;;;;5.33;3.33;;;;;19.54;50.58;100269.09;5097110;27;45415;-66
2022/11/08 10:44:27;;;;;;;;;3.33;2.67;;;;;18.90;52.17;100262.00;5093028;27;45526;-65
2022/11/08 10:46:55;;;;;;;;;8.00;5.00;;;;;19.29;52.44;100264.78;5094544;27;46633;-66
2022/11/08 10:49:37;;;;;;;;;4.00;4.00;;;;;22.37;46.08;100251.03;5095834;27;45456;-65
2022/11/08 10:52:19;;;;;;;;;5.33;4.00;;;;;24.67;41.67;100241.91;5097523;27;45537;-66
2022/11/08 10:54:51;;;;;;;;;3.00;3.00;;;;;26.56;38.22;100245.16;5093462;27;45406;-66
2022/11/08 10:57:40;;;;;;;;;3.33;3.33;;;;;25.31;39.65;100247.53;5091652;27;45538;-66
2022/11/08 11:00:17;;;;;;;;;4.00;4.00;;;;;25.54;39.17;100224.53;5080069;27;45400;-66
2022/11/08 11:02:45;;;;;;;;;7.25;3.50;;;;;25.02;39.36;100244.09;5096976;27;45234;-66
2022/11/08 11:05:27;;;;;;;;;3.00;3.00;;;;;25.84;38.64;100237.66;5099499;27;45367;-66
2022/11/08 11:07:53;;;;;;;;;4.00;3.00;;;;;25.64;38.67;100238.19;5100312;27;45583;-67
2022/11/08 11:10:29;;;;;;;;;3.00;3.00;;;;;23.80;41.28;100218.78;5100342;27;45457;-66
2022/11/08 11:13:05;;;;;;;;;7.00;4.00;;;;;22.62;43.63;100223.88;5096931;27;45813;-67
2022/11/08 11:15:35;;;;;;;;;5.00;3.25;;;;;21.58;45.46;100195.69;5096338;27;46626;-67
2022/11/08 11:18:02;;;;;;;;;3.00;3.00;;;;;20.90;47.05;100235.47;5095442;27;45751;-67
2022/11/08 11:20:28;;;;;;;;;5.33;4.00;;;;;20.36;48.66;100229.13;5096155;27;45495;-66
2022/11/08 11:22:53;;;;;;;;;5.00;3.00;;;;;20.04;49.39;100211.09;5096493;27;45404;-66
2022/11/08 11:25:22;;;;;;;;;2.00;2.00;;;;;19.73;50.33;100226.69;5097870;27;45630;-65
2022/11/08 11:27:56;;;;;;;;;4.00;3.00;;;;;20.09;50.56;100248.94;5100165;27;45428;-66
2022/11/08 11:30:29;;;;;;;;;6.00;2.00;;;;;20.23;50.22;100221.75;5095623;27;45443;-65
2022/11/08 11:32:57;;;;;;;;;4.00;4.00;;;;;19.94;50.75;100228.38;5095886;27;45440;-66
2022/11/08 11:35:30;;;;;;;;;5.00;2.33;;;;;20.30;50.36;100215.19;5095964;27;45508;-66
2022/11/08 11:38:00;;;;;;;;;6.00;4.00;;;;;20.93;48.37;100222.03;5096560;27;45693;-66
2022/11/08 11:40:39;;;;;;;;;6.00;4.00;;;;;20.61;49.47;100232.41;5094637;27;45410;-67
2022/11/08 11:43:28;;;;;;;;;16.67;13.00;;;;;20.37;50.53;100236.19;5091467;27;45552;-66
2022/11/08 11:46:16;;;;;;;;;5.67;5.67;;;;;19.50;52.50;100247.09;5098002;27;45445;-67
2022/11/08 11:48:46;;;;;;;;;8.67;7.00;;;;;18.92;54.06;100218.53;5099094;27;45450;-65
2022/11/08 11:51:12;;;;;;;;;16.67;16.33;;;;;18.60;54.76;100228.63;5093985;27;45413;-66
2022/11/08 11:53:39;;;;;;;;;8.67;7.00;;;;;18.69;54.90;100238.00;5095706;27;45730;-66
2022/11/08 11:56:21;;;;;;;;;3.00;3.00;;;;;18.61;55.15;100232.16;5097678;27;45319;-66
2022/11/08 11:59:12;;;;;;;;;5.33;4.67;;;;;19.06;54.19;100224.16;5099526;27;45444;-69
2022/11/08 12:02:15;;;;;;;;;7.33;4.00;;;;;19.12;54.09;100216.84;5097999;27;45388;-66
2022/11/08 12:04:58;;;;;;;;;7.00;5.33;;;;;18.98;54.66;100223.63;5094907;27;45311;-65
2022/11/08 12:07:28;;;;;;;;;5.33;4.67;;;;;18.81;55.08;100218.97;5098801;27;45440;-66
2022/11/08 12:10:11;;;;;;;;;4.33;4.33;;;;;18.60;55.45;100225.09;5094675;27;46856;-65
2022/11/08 12:13:21;;;;;;;;;3.33;3.00;;;;;18.21;57.08;100221.28;5093326;27;45465;-66
2022/11/08 12:15:54;;;;;;;;;4.00;4.00;;;;;17.87;58.36;100221.66;5095133;27;45545;-66
2022/11/08 12:18:28;;;;;;;;;4.00;4.00;;;;;17.67;58.89;100211.75;5094224;27;45424;-67
2022/11/08 12:21:13;;;;;;;;;6.00;4.00;;;;;17.54;59.50;100218.41;5094778;27;45753;-66
2022/11/08 12:24:00;;;;;;;;;9.67;4.00;;;;;17.58;59.33;100210.31;5094735;27;45393;-67
2022/11/08 12:26:45;;;;;;;;;6.67;4.67;;;;;17.57;59.76;100226.25;5094940;27;45848;-67
2022/11/08 12:29:25;;;;;;;;;3.33;0.67;;;;;17.43;60.50;100212.63;5112553;27;45747;-67
2022/11/08 12:32:16;;;;;;;;;4.00;3.00;;;;;17.35;60.95;100213.75;5111760;27;47227;-66
2022/11/08 12:35:18;;;;;;;;;5.67;4.67;;;;;17.29;61.45;100203.34;5095049;27;45584;-66
2022/11/08 12:37:56;;;;;;;;;5.00;4.33;;;;;17.36;61.34;100201.38;5093480;27;45740;-66
2022/11/08 12:40:43;;;;;;;;;5.00;4.33;;;;;17.31;61.30;100205.97;5095061;27;45414;-67
2022/11/08 12:44:04;;;;;;;;;4.67;4.00;;;;;17.26;61.87;100210.56;5115104;27;46746;-67
2022/11/08 12:46:42;;;;;;;;;3.00;3.00;;;;;17.15;62.05;100197.66;5072389;28;45449;-67
2022/11/08 12:49:35;;;;;;;;;7.67;4.00;;;;;17.04;62.22;100191.91;5054192;28;45596;-67
2022/11/08 12:52:25;;;;;;;;;4.33;4.33;;;;;17.12;62.60;100203.06;5091241;27;45443;-66
2022/11/08 12:54:59;;;;;;;;;5.00;5.00;;;;;17.11;62.61;100193.41;5110087;27;46781;-67
2022/11/08 12:57:30;;;;;;;;;6.33;4.67;;;;;17.12;62.34;100196.00;5092826;27;46633;-67
2022/11/08 13:00:28;;;;;;;;;4.67;3.00;;;;;17.09;62.65;100197.88;5095447;27;45480;-65
2022/11/08 13:03:16;;;;;;;;;5.33;3.33;;;;;17.08;62.69;100194.34;5074499;27;45567;-65
2022/11/08 13:06:07;;;;;;;;;5.67;5.00;;;;;17.01;62.92;100192.81;5092753;27;47044;-67
2022/11/08 13:08:55;;;;;;;;;8.33;5.00;;;;;16.95;63.30;100201.84;5078531;27;45347;-66
2022/11/08 13:11:46;;;;;;;;;3.00;3.00;;;;;16.87;63.25;100180.09;5096427;27;45402;-67
2022/11/08 13:14:15;;;;;;;;;4.00;3.33;;;;;16.97;63.17;100196.50;5098583;27;45522;-66
2022/11/08 13:16:44;;;;;;;;;3.33;3.33;;;;;17.07;63.37;100195.28;5097708;27;45465;-66
2022/11/08 13:19:51;;;;;;;;;7.33;4.00;;;;;17.10;62.99;100178.44;5096849;27;46196;-66
2022/11/08 13:22:29;;;;;;;;;5.67;5.00;;;;;17.19;62.71;100188.72;5106761;27;45420;-66
2022/11/08 13:24:55;;;;;;;;;4.33;3.33;;;;;17.21;62.87;100189.53;5083747;27;45769;-66
2022/11/08 13:27:44;;;;;;;;;4.67;2.67;;;;;17.23;62.58;100177.13;5092902;27;45960;-66
2022/11/08 13:30:12;;;;;;;;;5.00;4.00;;;;;17.28;62.35;100180.47;5093482;27;45714;-66
2022/11/08 13:33:11;;;;;;;;;3.33;3.33;;;;;17.28;62.21;100167.22;5093258;27;45538;-66
2022/11/08 13:36:18;;;;;;;;;6.00;3.00;;;;;17.31;61.96;100174.19;5097539;27;45539;-66
2022/11/08 13:38:55;;;;;;;;;4.33;3.00;;;;;17.29;62.17;100161.00;5097122;27;45570;-67
2022/11/08 13:41:23;;;;;;;;;5.00;3.33;;;;;17.32;62.24;100155.63;5086184;27;45355;-66
2022/11/08 13:43:52;;;;;;;;;8.33;3.67;;;;;17.40;62.49;100173.03;5098249;27;45511;-66
2022/11/08 13:46:29;;;;;;;;;5.33;3.00;;;;;17.38;61.71;100171.28;5098116;27;45336;-66
2022/11/08 13:49:00;;;;;;;;;6.00;4.33;;;;;17.42;62.04;100158.81;5094335;27;45593;-66
2022/11/08 13:51:40;;;;;;;;;6.00;3.67;;;;;17.42;62.13;100179.13;5093157;27;45508;-67
2022/11/08 13:54:21;;;;;;;;;4.67;4.00;;;;;17.49;61.73;100172.69;5096906;27;45440;-66
2022/11/08 13:56:58;;;;;;;;;3.00;3.00;;;;;17.55;62.02;100164.53;5092026;27;45728;-63
2022/11/08 13:59:29;;;;;;;;;3.00;3.00;;;;;17.60;61.03;100181.09;5092039;27;45587;-66
2022/11/08 14:02:24;;;;;;;;;4.67;4.00;;;;;17.79;60.37;100181.31;5095460;27;45479;-66
2022/11/08 14:04:52;;;;;;;;;4.00;4.00;;;;;17.87;60.12;100191.63;5093055;27;45669;-65
2022/11/08 14:07:46;;;;;;;;;6.00;4.00;;;;;17.91;60.13;100180.03;5093600;27;45441;-67
2022/11/08 14:11:03;;;;;;;;;4.33;3.00;;;;;17.87;59.69;100173.09;5092726;27;46507;-67
2022/11/08 14:13:32;;;;;;;;;3.00;2.00;;;;;17.87;60.00;100175.75;5047175;27;45543;-66
2022/11/08 14:16:10;;;;;;;;;3.33;3.00;;;;;17.94;59.79;100180.78;5096152;27;45949;-66
2022/11/08 14:18:38;;;;;;;;;4.33;2.00;;;;;17.99;59.77;100175.31;5093036;27;45451;-66
2022/11/08 14:21:05;;;;;;;;;3.00;3.00;;;;;18.03;59.98;100184.84;5093296;27;45325;-66
2022/11/08 14:23:38;;;;;;;;;5.67;3.00;;;;;17.81;60.01;100166.25;5093115;27;45579;-66
2022/11/08 14:26:14;;;;;;;;;4.33;2.67;;;;;17.70;60.28;100168.38;5092142;27;45574;-67
2022/11/08 14:28:42;;;;;;;;;2.33;2.33;;;;;17.85;60.56;100188.22;5111975;27;45526;-66
2022/11/08 14:31:33;;;;;;;;;3.00;3.00;;;;;17.77;60.63;100191.97;5093159;27;46644;-66
2022/11/08 14:34:00;;;;;;;;;5.00;4.00;;;;;17.46;60.79;100144.53;5110471;27;45409;-67
2022/11/08 14:36:28;;;;;;;;;3.33;3.33;;;;;17.69;60.74;100178.13;5095068;27;45555;-67
2022/11/08 14:39:12;;;;;;;;;4.00;4.00;;;;;17.66;61.08;100190.63;5111386;27;45448;-67
2022/11/08 14:41:44;;;;;;;;;4.00;3.00;;;;;17.59;61.20;100168.78;5100743;27;46304;-67
2022/11/08 14:44:14;;;;;;;;;5.00;2.00;;;;;17.71;61.12;100180.72;5116643;27;45477;-67
2022/11/08 14:46:41;;;;;;;;;3.00;3.00;;;;;17.74;60.81;100176.16;5116368;27;45587;-66
2022/11/08 14:49:12;;;;;;;;;3.67;3.67;;;;;17.80;60.92;100180.41;5098206;27;45471;-66
2022/11/08 14:51:38;;;;;;;;;5.00;4.00;;;;;17.77;61.08;100186.69;5095901;27;46658;-66
2022/11/08 14:54:16;;;;;;;;;2.33;2.33;;;;;17.80;60.93;100191.00;5100040;27;45309;-67
2022/11/08 14:56:43;;;;;;;;;2.00;1.00;;;;;17.76;60.88;100168.19;5101006;27;45325;-67
2022/11/08 14:59:12;;;;;;;;;5.67;3.00;;;;;17.77;60.93;100160.19;5101116;27;45412;-66
2022/11/08 15:01:39;;;;;;;;;3.00;2.33;;;;;17.66;61.05;100162.34;5098664;27;46946;-66
2022/11/08 15:04:13;;;;;;;;;4.00;4.00;;;;;17.72;61.25;100175.34;5096695;27;45715;-66
2022/11/08 15:06:44;;;;;;;;;4.00;3.00;;;;;17.69;60.75;100175.47;5095872;27;45426;-67
2022/11/08 15:09:26;;;;;;;;;3.33;3.33;;;;;17.70;60.85;100174.56;5112454;27;45574;-67
2022/11/08 15:11:55;;;;;;;;;3.00;3.00;;;;;17.66;60.94;100167.66;5098234;27;45297;-67
2022/11/08 15:14:24;;;;;;;;;4.00;4.00;;;;;17.66;61.41;100166.78;5100952;27;45548;-66
2022/11/08 15:16:55;;;;;;;;;2.33;2.33;;;;;17.64;61.21;100180.09;5096687;27;45550;-67
2022/11/08 15:19:43;;;;;;;;;3.00;2.00;;;;;17.55;61.40;100175.97;5094770;27;45484;-66
2022/11/08 15:22:35;;;;;;;;;4.00;2.33;;;;;17.47;61.93;100169.25;5097454;27;45531;-67
2022/11/08 15:25:14;;;;;;;;;3.00;2.00;;;;;17.45;61.77;100171.06;5100375;27;45428;-66
2022/11/08 15:27:54;;;;;;;;;4.00;3.00;;;;;17.48;61.80;100170.94;5095591;27;45473;-67
2022/11/08 15:30:28;;;;;;;;;2.33;2.00;;;;;17.46;61.89;100172.78;5095634;27;45519;-67
2022/11/08 15:32:55;;;;;;;;;3.67;3.00;;;;;17.35;62.03;100160.81;5095285;27;45550;-67
2022/11/08 15:35:30;;;;;;;;;5.00;3.00;;;;;17.25;62.08;100145.28;5095316;27;45527;-67
2022/11/08 15:38:05;;;;;;;;;3.33;3.33;;;;;17.34;61.91;100168.78;5099271;27;45528;-66
2022/11/08 15:40:34;;;;;;;;;5.00;3.00;;;;;17.27;62.16;100152.25;5095928;27;45625;-66
2022/11/08 15:43:01;;;;;;;;;3.33;3.33;;;;;17.27;62.27;100167.28;5095072;27;45388;-67
2022/11/08 15:45:31;;;;;;;;;3.00;3.00;;;;;17.25;62.41;100145.28;5098685;27;45313;-67
2022/11/08 15:48:23;;;;;;;;;3.33;3.33;;;;;17.27;62.42;100157.53;5098562;27;45517;-68
2022/11/08 15:50:48;;;;;;;;;5.00;2.00;;;;;17.29;62.42;100155.72;5098919;27;45390;-66
2022/11/08 15:53:15;;;;;;;;;3.00;3.00;;;;;17.25;62.54;100140.88;5099803;27;45431;-67
2022/11/08 15:55:46;;;;;;;;;3.00;3.00;;;;;17.34;62.39;100163.50;5097380;27;45428;-66
2022/11/08 15:58:16;;;;;;;;;3.00;2.67;;;;;17.27;62.35;100157.53;5093859;27;45461;-67
2022/11/08 16:00:46;;;;;;;;;6.33;3.00;;;;;17.26;62.46;100171.72;5099432;27;45614;-66
2022/11/08 16:03:13;;;;;;;;;3.00;3.00;;;;;17.23;62.67;100174.47;5115197;27;45519;-67
2022/11/08 16:05:38;;;;;;;;;2.67;2.67;;;;;17.15;62.70;100157.97;5098004;27;45428;-68
2022/11/08 16:08:04;;;;;;;;;2.33;2.33;;;;;17.21;62.65;100165.72;5095007;27;45500;-67
2022/11/08 16:10:33;;;;;;;;;3.67;3.00;;;;;17.15;62.57;100163.25;5098503;27;45596;-67
2022/11/08 16:12:59;;;;;;;;;5.00;2.33;;;;;17.19;62.64;100169.34;5095466;27;46130;-67
2022/11/08 16:15:28;;;;;;;;;5.33;4.33;;;;;17.20;62.45;100171.06;5110845;27;45476;-66
2022/11/08 16:17:54;;;;;;;;;4.00;3.00;;;;;17.12;62.89;100164.25;5110971;27;46790;-66
2022/11/08 16:20:30;;;;;;;;;3.00;3.00;;;;;17.08;63.00;100164.41;5096558;27;45434;-67
2022/11/08 16:23:01;;;;;;;;;3.00;1.00;;;;;17.10;62.88;100167.84;5111908;27;47750;-67
2022/11/08 16:25:28;;;;;;;;;4.00;2.33;;;;;17.08;62.78;100164.41;5093123;27;45561;-68
2022/11/08 16:28:01;;;;;;;;;4.00;3.67;;;;;17.05;62.91;100170.66;5104438;27;45771;-70
2022/11/08 16:30:28;;;;;;;;;2.33;2.00;;;;;17.02;63.17;100175.19;5096859;27;45638;-67
2022/11/08 16:32:55;;;;;;;;;3.00;2.00;;;;;16.91;63.24;100154.38;5097308;27;46266;-67
2022/11/08 16:35:21;;;;;;;;;4.33;2.33;;;;;16.92;63.01;100157.00;5097503;27;45554;-67
2022/11/08 16:37:48;;;;;;;;;3.00;3.00;;;;;16.91;63.25;100151.72;5092827;27;45469;-68
2022/11/08 16:40:20;;;;;;;;;3.33;3.00;;;;;16.95;63.14;100174.53;5094170;27;45802;-66
2022/11/08 16:42:48;;;;;;;;;3.00;3.00;;;;;16.90;63.13;100165.88;5092547;27;48031;-66
2022/11/08 16:45:15;;;;;;;;;2.00;2.00;;;;;16.92;63.05;100172.84;5094074;27;45733;-66
2022/11/08 16:47:43;;;;;;;;;2.33;1.67;;;;;16.89;63.01;100166.78;5093166;27;45765;-67
2022/11/08 16:50:24;;;;;;;;;2.33;2.33;;;;;16.88;63.11;100170.38;5094740;27;45420;-65
2022/11/08 16:52:50;;;;;;;;;3.00;3.00;;;;;16.87;63.23;100185.38;5097671;27;45334;-64
2022/11/08 16:55:17;;;;;;;;;2.00;2.00;;;;;16.86;63.13;100183.63;5085505;27;45490;-64
2022/11/08 16:57:44;;;;;;;;;6.33;3.00;;;;;16.88;63.50;100178.28;5093430;27;45413;-64
2022/11/08 17:00:12;;;;;;;;;2.00;2.00;;;;;16.89;63.00;100177.38;5096219;27;45872;-63
2022/11/08 17:02:42;;;;;;;;;6.00;4.00;;;;;16.80;62.97;100160.03;5090763;27;46639;-62
2022/11/08 17:05:15;;;;;;;;;3.67;2.33;;;;;16.81;62.95;100161.75;5086231;27;46012;-69
2022/11/08 17:07:40;;;;;;;;;3.00;3.00;;;;;16.81;62.77;100156.47;5094987;27;45264;-68
2022/11/08 17:10:07;;;;;;;;;6.67;5.00;;;;;16.83;62.67;100159.06;5097025;27;45707;-68
2022/11/08 17:12:32;;;;;;;;;5.33;2.33;;;;;16.77;62.58;100154.81;5093317;27;45423;-68
2022/11/08 17:14:58;;;;;;;;;3.00;3.00;;;;;16.75;62.71;100157.50;5090870;27;45851;-68
2022/11/08 17:17:26;;;;;;;;;3.00;3.00;;;;;16.79;62.60;100170.66;5089104;27;45513;-71
2022/11/08 17:19:53;;;;;;;;;2.67;2.00;;;;;16.73;62.64;100156.69;5090750;27;45586;-69
2022/11/08 17:22:19;;;;;;;;;2.67;2.00;;;;;16.72;62.76;100162.88;5089766;27;45575;-68
2022/11/08 17:24:45;;;;;;;;;3.00;3.00;;;;;16.62;62.76;100148.25;5091517;27;45370;-70
2022/11/08 17:27:19;;;;;;;;;4.33;2.33;;;;;16.66;62.82;100154.31;5091780;27;45560;-70
2022/11/08 17:29:45;;;;;;;;;2.00;2.00;;;;;16.64;63.11;100174.63;5092876;27;45524;-70
2022/11/08 17:32:11;;;;;;;;;3.33;3.33;;;;;16.65;63.14;100193.06;5095260;27;46037;-70
2022/11/08 17:34:40;;;;;;;;;4.00;3.00;;;;;16.66;63.07;100194.81;5095406;27;45317;-68
2022/11/08 17:37:06;;;;;;;;;2.00;1.67;;;;;16.65;63.00;100192.22;5091810;27;45552;-70
2022/11/08 17:39:32;;;;;;;;;4.67;3.33;;;;;16.63;63.21;100205.47;5091610;27;45452;-71
2022/11/08 17:41:58;;;;;;;;;3.33;3.33;;;;;16.63;63.60;100204.63;5095386;27;45369;-70
2022/11/08 17:44:25;;;;;;;;;2.67;2.00;;;;;16.46;63.52;100174.28;5096426;27;45409;-70
2022/11/08 17:46:51;;;;;;;;;6.33;4.00;;;;;16.66;63.38;100209.84;5096711;27;45400;-74
2022/11/08 17:49:16;;;;;;;;;5.00;3.00;;;;;16.67;63.23;100220.34;5095020;27;45701;-70
2022/11/08 17:51:42;;;;;;;;;2.67;2.00;;;;;16.63;63.25;100208.13;5094847;27;46745;-69
2022/11/08 17:54:08;;;;;;;;;5.00;4.00;;;;;16.57;63.26;100189.81;5095712;27;45718;-68
2022/11/08 17:56:33;;;;;;;;;4.33;3.33;;;;;16.61;63.42;100204.69;5089595;27;45615;-69
2022/11/08 17:58:59;;;;;;;;;3.67;3.67;;;;;16.65;63.07;100205.44;5091851;27;45374;-70
2022/11/08 18:01:25;;;;;;;;;4.00;3.00;;;;;16.60;62.74;100191.50;5088670;27;46725;-67
2022/11/08 18:03:50;;;;;;;;;7.67;3.67;;;;;16.55;63.40;100196.94;5089535;27;45556;-68
2022/11/08 18:06:16;;;;;;;;;5.33;4.00;;;;;16.57;63.27;100204.84;5092297;27;45427;-65